sensor_id;sensor_type;location;lat;lon;timestamp;P1;durP1;ratioP1;P2;durP2;ratioP2
34767;SDS011;21755;43.608;1.236;2024-01-30T00:02:08;14.02;;;4.97;;
34767;SDS011;21755;43.608;1.236;2024-01-30T00:04:34;13.85;;;5.88;;
34767;SDS011;21755;43.608;1.236;2024-01-30T00:07:00;10.27;;;4.75;;
34767;SDS011;21755;43.608;1.236;2024-01-30T00:09:26;12.35;;;5.10;;
34767;SDS011;21755;43.608;1.236;2024-01-30T00:11:52;12.32;;;4.55;;
34767;SDS011;21755;43.608;1.236;2024-01-30T00:14:18;14.88;;;4.93;;
34767;SDS011;21755;43.608;1.236;2024-01-30T00:16:44;13.13;;;5.07;;
34767;SDS011;21755;43.608;1.236;2024-01-30T00:19:10;10.65;;;4.50;;
34767;SDS011;21755;43.608;1.236;2024-01-30T00:21:36;11.05;;;4.57;;
34767;SDS011;21755;43.608;1.236;2024-01-30T00:24:02;9.25;;;4.30;;
34767;SDS011;21755;43.608;1.236;2024-01-30T00:26:28;13.13;;;4.97;;
34767;SDS011;21755;43.608;1.236;2024-01-30T00:28:54;8.80;;;4.75;;
34767;SDS011;21755;43.608;1.236;2024-01-30T00:31:20;11.05;;;4.55;;
34767;SDS011;21755;43.608;1.236;2024-01-30T00:33:46;7.65;;;4.70;;
34767;SDS011;21755;43.608;1.236;2024-01-30T00:36:12;15.80;;;4.78;;
34767;SDS011;21755;43.608;1.236;2024-01-30T00:38:38;12.90;;;5.07;;
34767;SDS011;21755;43.608;1.236;2024-01-30T00:41:08;12.88;;;4.80;;
34767;SDS011;21755;43.608;1.236;2024-01-30T00:43:34;9.40;;;4.68;;
34767;SDS011;21755;43.608;1.236;2024-01-30T00:46:00;18.20;;;5.55;;
34767;SDS011;21755;43.608;1.236;2024-01-30T00:48:26;9.57;;;4.75;;
34767;SDS011;21755;43.608;1.236;2024-01-30T00:50:52;11.50;;;4.47;;
34767;SDS011;21755;43.608;1.236;2024-01-30T00:53:18;13.02;;;5.03;;
34767;SDS011;21755;43.608;1.236;2024-01-30T00:55:44;9.10;;;4.50;;
34767;SDS011;21755;43.608;1.236;2024-01-30T00:58:10;12.75;;;5.15;;
34767;SDS011;21755;43.608;1.236;2024-01-30T01:00:36;15.80;;;5.25;;
34767;SDS011;21755;43.608;1.236;2024-01-30T01:03:02;11.93;;;4.97;;
34767;SDS011;21755;43.608;1.236;2024-01-30T01:05:28;10.25;;;4.82;;
34767;SDS011;21755;43.608;1.236;2024-01-30T01:07:54;13.88;;;4.78;;
34767;SDS011;21755;43.608;1.236;2024-01-30T01:10:20;12.57;;;4.88;;
34767;SDS011;21755;43.608;1.236;2024-01-30T01:12:46;11.98;;;4.88;;
34767;SDS011;21755;43.608;1.236;2024-01-30T01:15:13;9.88;;;4.15;;
34767;SDS011;21755;43.608;1.236;2024-01-30T01:17:39;9.25;;;4.32;;
34767;SDS011;21755;43.608;1.236;2024-01-30T01:20:05;12.35;;;4.63;;
34767;SDS011;21755;43.608;1.236;2024-01-30T01:22:33;10.68;;;4.38;;
34767;SDS011;21755;43.608;1.236;2024-01-30T01:24:59;12.45;;;5.32;;
34767;SDS011;21755;43.608;1.236;2024-01-30T01:27:25;10.25;;;4.43;;
34767;SDS011;21755;43.608;1.236;2024-01-30T01:29:51;14.63;;;4.95;;
34767;SDS011;21755;43.608;1.236;2024-01-30T01:32:18;14.07;;;4.78;;
34767;SDS011;21755;43.608;1.236;2024-01-30T01:34:44;7.72;;;4.10;;
34767;SDS011;21755;43.608;1.236;2024-01-30T01:37:10;14.38;;;4.70;;
34767;SDS011;21755;43.608;1.236;2024-01-30T01:39:36;11.60;;;4.40;;
34767;SDS011;21755;43.608;1.236;2024-01-30T01:42:01;15.82;;;4.85;;
34767;SDS011;21755;43.608;1.236;2024-01-30T01:44:27;9.43;;;4.45;;
34767;SDS011;21755;43.608;1.236;2024-01-30T01:46:54;15.60;;;4.82;;
34767;SDS011;21755;43.608;1.236;2024-01-30T01:49:23;10.27;;;4.35;;
34767;SDS011;21755;43.608;1.236;2024-01-30T01:51:50;11.95;;;4.43;;
34767;SDS011;21755;43.608;1.236;2024-01-30T01:54:19;12.68;;;4.63;;
34767;SDS011;21755;43.608;1.236;2024-01-30T01:56:45;10.43;;;4.57;;
34767;SDS011;21755;43.608;1.236;2024-01-30T01:59:11;22.70;;;4.68;;
34767;SDS011;21755;43.608;1.236;2024-01-30T02:01:38;9.02;;;4.22;;
34767;SDS011;21755;43.608;1.236;2024-01-30T02:04:08;10.07;;;4.32;;
34767;SDS011;21755;43.608;1.236;2024-01-30T02:06:34;12.68;;;4.30;;
34767;SDS011;21755;43.608;1.236;2024-01-30T02:09:00;17.05;;;5.03;;
34767;SDS011;21755;43.608;1.236;2024-01-30T02:11:26;16.85;;;5.43;;
34767;SDS011;21755;43.608;1.236;2024-01-30T02:13:53;9.55;;;5.03;;
34767;SDS011;21755;43.608;1.236;2024-01-30T02:16:19;10.65;;;4.65;;
34767;SDS011;21755;43.608;1.236;2024-01-30T02:18:45;11.55;;;3.88;;
34767;SDS011;21755;43.608;1.236;2024-01-30T02:21:13;9.07;;;4.45;;
34767;SDS011;21755;43.608;1.236;2024-01-30T02:23:40;10.38;;;4.43;;
34767;SDS011;21755;43.608;1.236;2024-01-30T02:26:08;10.88;;;4.55;;
34767;SDS011;21755;43.608;1.236;2024-01-30T02:28:33;15.02;;;4.68;;
34767;SDS011;21755;43.608;1.236;2024-01-30T02:30:59;8.55;;;4.20;;
34767;SDS011;21755;43.608;1.236;2024-01-30T02:33:25;12.90;;;5.05;;
34767;SDS011;21755;43.608;1.236;2024-01-30T02:35:51;10.75;;;4.22;;
34767;SDS011;21755;43.608;1.236;2024-01-30T02:38:17;8.80;;;3.97;;
34767;SDS011;21755;43.608;1.236;2024-01-30T02:40:43;11.15;;;3.88;;
34767;SDS011;21755;43.608;1.236;2024-01-30T02:43:08;15.98;;;4.45;;
34767;SDS011;21755;43.608;1.236;2024-01-30T02:45:34;11.00;;;4.35;;
34767;SDS011;21755;43.608;1.236;2024-01-30T02:48:00;10.20;;;4.22;;
34767;SDS011;21755;43.608;1.236;2024-01-30T02:50:26;11.98;;;5.40;;
34767;SDS011;21755;43.608;1.236;2024-01-30T02:52:52;11.20;;;4.85;;
34767;SDS011;21755;43.608;1.236;2024-01-30T02:55:18;18.95;;;4.65;;
34767;SDS011;21755;43.608;1.236;2024-01-30T02:57:44;10.23;;;4.18;;
34767;SDS011;21755;43.608;1.236;2024-01-30T03:00:10;8.18;;;4.28;;
34767;SDS011;21755;43.608;1.236;2024-01-30T03:02:36;10.15;;;4.28;;
34767;SDS011;21755;43.608;1.236;2024-01-30T03:05:03;14.68;;;4.78;;
34767;SDS011;21755;43.608;1.236;2024-01-30T03:07:30;17.52;;;4.55;;
34767;SDS011;21755;43.608;1.236;2024-01-30T03:09:55;13.43;;;4.70;;
34767;SDS011;21755;43.608;1.236;2024-01-30T03:12:21;7.40;;;4.13;;
34767;SDS011;21755;43.608;1.236;2024-01-30T03:14:48;8.63;;;4.47;;
34767;SDS011;21755;43.608;1.236;2024-01-30T03:17:14;8.93;;;4.53;;
34767;SDS011;21755;43.608;1.236;2024-01-30T03:19:40;13.70;;;4.47;;
34767;SDS011;21755;43.608;1.236;2024-01-30T03:22:07;13.20;;;4.18;;
34767;SDS011;21755;43.608;1.236;2024-01-30T03:24:33;10.95;;;4.80;;
34767;SDS011;21755;43.608;1.236;2024-01-30T03:26:58;13.73;;;4.15;;
34767;SDS011;21755;43.608;1.236;2024-01-30T03:29:24;15.88;;;4.75;;
34767;SDS011;21755;43.608;1.236;2024-01-30T03:31:50;6.25;;;3.55;;
34767;SDS011;21755;43.608;1.236;2024-01-30T03:34:16;12.07;;;4.20;;
34767;SDS011;21755;43.608;1.236;2024-01-30T03:36:42;8.15;;;3.85;;
34767;SDS011;21755;43.608;1.236;2024-01-30T03:39:08;14.25;;;4.60;;
34767;SDS011;21755;43.608;1.236;2024-01-30T03:41:34;9.40;;;3.97;;
34767;SDS011;21755;43.608;1.236;2024-01-30T03:43:59;7.80;;;4.28;;
34767;SDS011;21755;43.608;1.236;2024-01-30T03:46:25;10.82;;;4.30;;
34767;SDS011;21755;43.608;1.236;2024-01-30T03:48:51;8.13;;;3.85;;
34767;SDS011;21755;43.608;1.236;2024-01-30T03:51:17;14.85;;;3.67;;
34767;SDS011;21755;43.608;1.236;2024-01-30T03:53:43;12.40;;;4.15;;
34767;SDS011;21755;43.608;1.236;2024-01-30T03:56:11;10.73;;;4.22;;
34767;SDS011;21755;43.608;1.236;2024-01-30T03:58:40;13.07;;;5.20;;
34767;SDS011;21755;43.608;1.236;2024-01-30T04:01:06;8.95;;;3.90;;
34767;SDS011;21755;43.608;1.236;2024-01-30T04:03:33;12.02;;;4.32;;
34767;SDS011;21755;43.608;1.236;2024-01-30T04:05:59;16.90;;;4.82;;
34767;SDS011;21755;43.608;1.236;2024-01-30T04:08:24;10.60;;;4.68;;
34767;SDS011;21755;43.608;1.236;2024-01-30T04:10:50;13.63;;;4.32;;
34767;SDS011;21755;43.608;1.236;2024-01-30T04:13:16;13.18;;;4.40;;
34767;SDS011;21755;43.608;1.236;2024-01-30T04:15:42;15.02;;;4.40;;
34767;SDS011;21755;43.608;1.236;2024-01-30T04:18:08;15.90;;;3.97;;
34767;SDS011;21755;43.608;1.236;2024-01-30T04:20:33;13.63;;;4.32;;
34767;SDS011;21755;43.608;1.236;2024-01-30T04:22:59;14.13;;;3.90;;
34767;SDS011;21755;43.608;1.236;2024-01-30T04:25:25;13.45;;;4.10;;
34767;SDS011;21755;43.608;1.236;2024-01-30T04:27:51;13.55;;;4.13;;
34767;SDS011;21755;43.608;1.236;2024-01-30T04:30:17;11.05;;;3.85;;
34767;SDS011;21755;43.608;1.236;2024-01-30T04:32:43;14.43;;;4.03;;
34767;SDS011;21755;43.608;1.236;2024-01-30T04:35:09;10.38;;;4.28;;
34767;SDS011;21755;43.608;1.236;2024-01-30T04:37:35;8.55;;;3.85;;
34767;SDS011;21755;43.608;1.236;2024-01-30T04:40:01;9.35;;;3.97;;
34767;SDS011;21755;43.608;1.236;2024-01-30T04:42:28;8.77;;;4.28;;
34767;SDS011;21755;43.608;1.236;2024-01-30T04:44:54;13.82;;;3.90;;
34767;SDS011;21755;43.608;1.236;2024-01-30T04:47:19;10.32;;;4.70;;
34767;SDS011;21755;43.608;1.236;2024-01-30T04:49:45;11.60;;;4.75;;
34767;SDS011;21755;43.608;1.236;2024-01-30T04:52:11;11.18;;;3.55;;
34767;SDS011;21755;43.608;1.236;2024-01-30T04:54:37;6.32;;;3.72;;
34767;SDS011;21755;43.608;1.236;2024-01-30T04:57:03;15.35;;;4.43;;
34767;SDS011;21755;43.608;1.236;2024-01-30T04:59:30;11.00;;;4.18;;
34767;SDS011;21755;43.608;1.236;2024-01-30T05:01:56;12.20;;;3.70;;
34767;SDS011;21755;43.608;1.236;2024-01-30T05:04:22;9.10;;;4.13;;
34767;SDS011;21755;43.608;1.236;2024-01-30T05:06:48;7.57;;;3.85;;
34767;SDS011;21755;43.608;1.236;2024-01-30T05:09:14;9.20;;;4.32;;
34767;SDS011;21755;43.608;1.236;2024-01-30T05:11:40;11.38;;;4.43;;
34767;SDS011;21755;43.608;1.236;2024-01-30T05:14:06;6.53;;;3.60;;
34767;SDS011;21755;43.608;1.236;2024-01-30T05:16:34;9.85;;;3.67;;
34767;SDS011;21755;43.608;1.236;2024-01-30T05:19:00;6.93;;;3.67;;
34767;SDS011;21755;43.608;1.236;2024-01-30T05:21:26;9.68;;;4.13;;
34767;SDS011;21755;43.608;1.236;2024-01-30T05:23:51;9.15;;;3.60;;
34767;SDS011;21755;43.608;1.236;2024-01-30T05:26:17;6.35;;;3.88;;
34767;SDS011;21755;43.608;1.236;2024-01-30T05:28:43;16.02;;;4.10;;
34767;SDS011;21755;43.608;1.236;2024-01-30T05:31:09;14.15;;;4.75;;
34767;SDS011;21755;43.608;1.236;2024-01-30T05:33:35;12.55;;;4.07;;
34767;SDS011;21755;43.608;1.236;2024-01-30T05:36:02;17.40;;;4.28;;
34767;SDS011;21755;43.608;1.236;2024-01-30T05:38:28;14.77;;;4.40;;
34767;SDS011;21755;43.608;1.236;2024-01-30T05:40:55;11.15;;;4.07;;
34767;SDS011;21755;43.608;1.236;2024-01-30T05:43:23;10.27;;;3.60;;
34767;SDS011;21755;43.608;1.236;2024-01-30T05:45:49;9.35;;;4.13;;
34767;SDS011;21755;43.608;1.236;2024-01-30T05:48:15;7.68;;;3.92;;
34767;SDS011;21755;43.608;1.236;2024-01-30T05:50:41;12.25;;;4.38;;
34767;SDS011;21755;43.608;1.236;2024-01-30T05:53:07;12.10;;;3.97;;
34767;SDS011;21755;43.608;1.236;2024-01-30T05:55:33;6.97;;;3.30;;
34767;SDS011;21755;43.608;1.236;2024-01-30T05:57:59;20.00;;;4.75;;
34767;SDS011;21755;43.608;1.236;2024-01-30T06:00:25;11.85;;;3.83;;
34767;SDS011;21755;43.608;1.236;2024-01-30T06:02:50;10.40;;;3.75;;
34767;SDS011;21755;43.608;1.236;2024-01-30T06:05:16;7.90;;;3.55;;
34767;SDS011;21755;43.608;1.236;2024-01-30T06:07:42;11.90;;;3.97;;
34767;SDS011;21755;43.608;1.236;2024-01-30T06:10:08;8.30;;;4.38;;
34767;SDS011;21755;43.608;1.236;2024-01-30T06:12:34;12.88;;;4.35;;
34767;SDS011;21755;43.608;1.236;2024-01-30T06:15:01;12.77;;;4.18;;
34767;SDS011;21755;43.608;1.236;2024-01-30T06:17:27;18.05;;;4.40;;
34767;SDS011;21755;43.608;1.236;2024-01-30T06:19:53;19.08;;;4.43;;
34767;SDS011;21755;43.608;1.236;2024-01-30T06:22:19;13.75;;;5.70;;
34767;SDS011;21755;43.608;1.236;2024-01-30T06:24:45;10.75;;;4.18;;
34767;SDS011;21755;43.608;1.236;2024-01-30T06:27:14;19.80;;;5.47;;
34767;SDS011;21755;43.608;1.236;2024-01-30T06:29:40;18.60;;;5.95;;
34767;SDS011;21755;43.608;1.236;2024-01-30T06:32:07;18.42;;;5.00;;
34767;SDS011;21755;43.608;1.236;2024-01-30T06:34:33;14.63;;;4.82;;
34767;SDS011;21755;43.608;1.236;2024-01-30T06:36:59;17.35;;;5.20;;
34767;SDS011;21755;43.608;1.236;2024-01-30T06:39:26;16.63;;;4.70;;
34767;SDS011;21755;43.608;1.236;2024-01-30T06:41:52;13.80;;;4.65;;
34767;SDS011;21755;43.608;1.236;2024-01-30T06:44:18;19.00;;;5.03;;
34767;SDS011;21755;43.608;1.236;2024-01-30T06:46:44;16.83;;;5.32;;
34767;SDS011;21755;43.608;1.236;2024-01-30T06:49:10;19.45;;;5.25;;
34767;SDS011;21755;43.608;1.236;2024-01-30T06:51:35;15.38;;;5.25;;
34767;SDS011;21755;43.608;1.236;2024-01-30T06:54:01;15.80;;;4.40;;
34767;SDS011;21755;43.608;1.236;2024-01-30T06:56:27;16.10;;;4.32;;
34767;SDS011;21755;43.608;1.236;2024-01-30T06:58:53;12.00;;;4.63;;
34767;SDS011;21755;43.608;1.236;2024-01-30T07:01:19;16.92;;;5.05;;
34767;SDS011;21755;43.608;1.236;2024-01-30T07:03:46;29.92;;;5.47;;
34767;SDS011;21755;43.608;1.236;2024-01-30T07:06:12;13.15;;;4.50;;
34767;SDS011;21755;43.608;1.236;2024-01-30T07:08:38;15.85;;;4.88;;
34767;SDS011;21755;43.608;1.236;2024-01-30T07:11:06;10.60;;;4.47;;
34767;SDS011;21755;43.608;1.236;2024-01-30T07:13:33;16.88;;;4.68;;
34767;SDS011;21755;43.608;1.236;2024-01-30T07:16:00;14.88;;;4.70;;
34767;SDS011;21755;43.608;1.236;2024-01-30T07:18:26;15.43;;;4.70;;
34767;SDS011;21755;43.608;1.236;2024-01-30T07:20:51;13.98;;;4.78;;
34767;SDS011;21755;43.608;1.236;2024-01-30T07:23:17;23.58;;;5.15;;
34767;SDS011;21755;43.608;1.236;2024-01-30T07:25:46;22.25;;;5.90;;
34767;SDS011;21755;43.608;1.236;2024-01-30T07:28:15;19.77;;;5.60;;
34767;SDS011;21755;43.608;1.236;2024-01-30T07:30:42;19.95;;;5.38;;
34767;SDS011;21755;43.608;1.236;2024-01-30T07:33:08;13.88;;;5.35;;
34767;SDS011;21755;43.608;1.236;2024-01-30T07:35:34;16.15;;;5.63;;
34767;SDS011;21755;43.608;1.236;2024-01-30T07:38:00;18.35;;;5.75;;
34767;SDS011;21755;43.608;1.236;2024-01-30T07:40:26;21.45;;;5.90;;
34767;SDS011;21755;43.608;1.236;2024-01-30T07:42:55;14.73;;;5.60;;
34767;SDS011;21755;43.608;1.236;2024-01-30T07:45:21;17.50;;;5.22;;
34767;SDS011;21755;43.608;1.236;2024-01-30T07:47:49;22.38;;;5.30;;
34767;SDS011;21755;43.608;1.236;2024-01-30T07:50:15;15.80;;;5.63;;
34767;SDS011;21755;43.608;1.236;2024-01-30T07:52:42;20.35;;;5.30;;
34767;SDS011;21755;43.608;1.236;2024-01-30T07:57:58;18.20;;;5.65;;
34767;SDS011;21755;43.608;1.236;2024-01-30T08:00:25;18.20;;;5.65;;
34767;SDS011;21755;43.608;1.236;2024-01-30T08:02:51;14.35;;;5.05;;
34767;SDS011;21755;43.608;1.236;2024-01-30T08:05:19;20.27;;;5.57;;
34767;SDS011;21755;43.608;1.236;2024-01-30T08:07:47;16.55;;;5.75;;
34767;SDS011;21755;43.608;1.236;2024-01-30T08:10:13;16.23;;;5.45;;
34767;SDS011;21755;43.608;1.236;2024-01-30T08:12:40;22.38;;;5.40;;
34767;SDS011;21755;43.608;1.236;2024-01-30T08:15:06;17.17;;;5.65;;
34767;SDS011;21755;43.608;1.236;2024-01-30T08:17:34;18.88;;;5.40;;
34767;SDS011;21755;43.608;1.236;2024-01-30T08:19:59;21.58;;;5.03;;
34767;SDS011;21755;43.608;1.236;2024-01-30T08:22:25;21.15;;;5.68;;
34767;SDS011;21755;43.608;1.236;2024-01-30T08:24:51;12.40;;;4.85;;
34767;SDS011;21755;43.608;1.236;2024-01-30T08:27:17;17.85;;;5.07;;
34767;SDS011;21755;43.608;1.236;2024-01-30T08:29:43;19.77;;;6.03;;
34767;SDS011;21755;43.608;1.236;2024-01-30T08:32:09;14.85;;;5.05;;
34767;SDS011;21755;43.608;1.236;2024-01-30T08:34:35;14.10;;;5.80;;
34767;SDS011;21755;43.608;1.236;2024-01-30T08:37:00;17.35;;;5.43;;
34767;SDS011;21755;43.608;1.236;2024-01-30T08:39:26;15.13;;;5.28;;
34767;SDS011;21755;43.608;1.236;2024-01-30T08:41:52;19.02;;;4.70;;
34767;SDS011;21755;43.608;1.236;2024-01-30T08:44:18;16.67;;;4.70;;
34767;SDS011;21755;43.608;1.236;2024-01-30T08:46:44;20.67;;;4.75;;
34767;SDS011;21755;43.608;1.236;2024-01-30T08:49:10;17.15;;;4.53;;
34767;SDS011;21755;43.608;1.236;2024-01-30T08:51:38;17.75;;;4.93;;
34767;SDS011;21755;43.608;1.236;2024-01-30T08:54:05;16.35;;;4.22;;
34767;SDS011;21755;43.608;1.236;2024-01-30T08:56:30;19.02;;;5.05;;
34767;SDS011;21755;43.608;1.236;2024-01-30T08:58:56;16.92;;;4.68;;
34767;SDS011;21755;43.608;1.236;2024-01-30T09:01:22;14.35;;;4.65;;
34767;SDS011;21755;43.608;1.236;2024-01-30T09:03:48;17.65;;;4.65;;
34767;SDS011;21755;43.608;1.236;2024-01-30T09:06:14;18.60;;;5.13;;
34767;SDS011;21755;43.608;1.236;2024-01-30T09:08:40;15.88;;;4.47;;
34767;SDS011;21755;43.608;1.236;2024-01-30T09:11:12;19.35;;;4.95;;
34767;SDS011;21755;43.608;1.236;2024-01-30T09:13:39;22.52;;;4.60;;
34767;SDS011;21755;43.608;1.236;2024-01-30T09:16:05;17.65;;;4.88;;
34767;SDS011;21755;43.608;1.236;2024-01-30T09:18:31;16.85;;;4.68;;
34767;SDS011;21755;43.608;1.236;2024-01-30T09:20:57;14.65;;;4.60;;
34767;SDS011;21755;43.608;1.236;2024-01-30T09:23:23;11.65;;;4.32;;
34767;SDS011;21755;43.608;1.236;2024-01-30T09:25:49;24.83;;;4.70;;
34767;SDS011;21755;43.608;1.236;2024-01-30T09:28:17;11.43;;;4.65;;
34767;SDS011;21755;43.608;1.236;2024-01-30T09:30:43;18.00;;;4.85;;
34767;SDS011;21755;43.608;1.236;2024-01-30T09:33:09;28.50;;;5.75;;
34767;SDS011;21755;43.608;1.236;2024-01-30T09:35:35;11.55;;;4.72;;
34767;SDS011;21755;43.608;1.236;2024-01-30T09:38:02;20.67;;;4.68;;
34767;SDS011;21755;43.608;1.236;2024-01-30T09:40:28;17.00;;;4.75;;
34767;SDS011;21755;43.608;1.236;2024-01-30T09:42:54;14.43;;;4.80;;
34767;SDS011;21755;43.608;1.236;2024-01-30T09:45:24;13.55;;;4.70;;
34767;SDS011;21755;43.608;1.236;2024-01-30T09:47:51;14.82;;;4.45;;
34767;SDS011;21755;43.608;1.236;2024-01-30T09:50:17;23.20;;;4.82;;
34767;SDS011;21755;43.608;1.236;2024-01-30T09:52:44;15.27;;;4.05;;
34767;SDS011;21755;43.608;1.236;2024-01-30T09:55:11;20.20;;;4.13;;
34767;SDS011;21755;43.608;1.236;2024-01-30T09:57:37;16.58;;;4.00;;
34767;SDS011;21755;43.608;1.236;2024-01-30T10:00:03;12.45;;;3.55;;
34767;SDS011;21755;43.608;1.236;2024-01-30T10:02:32;12.38;;;4.00;;
34767;SDS011;21755;43.608;1.236;2024-01-30T10:04:58;17.75;;;4.05;;
34767;SDS011;21755;43.608;1.236;2024-01-30T10:07:25;18.40;;;3.75;;
34767;SDS011;21755;43.608;1.236;2024-01-30T10:09:52;14.63;;;3.80;;
34767;SDS011;21755;43.608;1.236;2024-01-30T10:12:18;20.20;;;4.45;;
34767;SDS011;21755;43.608;1.236;2024-01-30T10:14:44;16.23;;;4.32;;
34767;SDS011;21755;43.608;1.236;2024-01-30T10:17:11;13.10;;;4.10;;
34767;SDS011;21755;43.608;1.236;2024-01-30T10:19:37;12.48;;;3.38;;
34767;SDS011;21755;43.608;1.236;2024-01-30T10:22:04;15.77;;;3.65;;
34767;SDS011;21755;43.608;1.236;2024-01-30T10:24:31;17.92;;;3.75;;
34767;SDS011;21755;43.608;1.236;2024-01-30T10:26:58;9.77;;;3.30;;
34767;SDS011;21755;43.608;1.236;2024-01-30T10:29:24;16.25;;;4.38;;
34767;SDS011;21755;43.608;1.236;2024-01-30T10:31:59;12.98;;;3.70;;
34767;SDS011;21755;43.608;1.236;2024-01-30T10:34:26;14.43;;;3.95;;
34767;SDS011;21755;43.608;1.236;2024-01-30T10:36:59;12.38;;;3.30;;
34767;SDS011;21755;43.608;1.236;2024-01-30T10:39:32;11.88;;;3.10;;
34767;SDS011;21755;43.608;1.236;2024-01-30T10:42:04;12.75;;;4.03;;
34767;SDS011;21755;43.608;1.236;2024-01-30T10:44:43;14.10;;;3.72;;
34767;SDS011;21755;43.608;1.236;2024-01-30T10:47:16;13.95;;;4.45;;
34767;SDS011;21755;43.608;1.236;2024-01-30T10:49:48;23.17;;;5.20;;
34767;SDS011;21755;43.608;1.236;2024-01-30T10:52:14;15.32;;;4.55;;
34767;SDS011;21755;43.608;1.236;2024-01-30T10:54:42;10.88;;;3.83;;
34767;SDS011;21755;43.608;1.236;2024-01-30T10:57:10;11.73;;;3.25;;
34767;SDS011;21755;43.608;1.236;2024-01-30T10:59:37;8.45;;;3.60;;
34767;SDS011;21755;43.608;1.236;2024-01-30T11:02:04;12.95;;;4.13;;
34767;SDS011;21755;43.608;1.236;2024-01-30T11:04:38;10.68;;;3.63;;
34767;SDS011;21755;43.608;1.236;2024-01-30T11:07:18;12.80;;;3.75;;
34767;SDS011;21755;43.608;1.236;2024-01-30T11:10:07;15.10;;;4.28;;
34767;SDS011;21755;43.608;1.236;2024-01-30T11:12:38;15.10;;;3.88;;
34767;SDS011;21755;43.608;1.236;2024-01-30T11:17:44;8.43;;;3.55;;
34767;SDS011;21755;43.608;1.236;2024-01-30T11:20:19;10.23;;;4.00;;
34767;SDS011;21755;43.608;1.236;2024-01-30T11:22:56;12.05;;;3.83;;
34767;SDS011;21755;43.608;1.236;2024-01-30T11:25:24;10.15;;;3.55;;
34767;SDS011;21755;43.608;1.236;2024-01-30T11:27:54;7.15;;;3.97;;
34767;SDS011;21755;43.608;1.236;2024-01-30T11:30:24;15.20;;;3.65;;
34767;SDS011;21755;43.608;1.236;2024-01-30T11:32:58;14.50;;;4.10;;
34767;SDS011;21755;43.608;1.236;2024-01-30T11:35:25;10.68;;;3.92;;
34767;SDS011;21755;43.608;1.236;2024-01-30T11:37:51;14.52;;;4.60;;
34767;SDS011;21755;43.608;1.236;2024-01-30T11:40:17;12.10;;;3.60;;
34767;SDS011;21755;43.608;1.236;2024-01-30T11:42:44;17.15;;;3.70;;
34767;SDS011;21755;43.608;1.236;2024-01-30T11:45:12;17.48;;;3.92;;
34767;SDS011;21755;43.608;1.236;2024-01-30T11:47:38;15.20;;;4.25;;
34767;SDS011;21755;43.608;1.236;2024-01-30T11:50:04;16.48;;;4.30;;
34767;SDS011;21755;43.608;1.236;2024-01-30T11:52:33;11.13;;;4.38;;
34767;SDS011;21755;43.608;1.236;2024-01-30T11:54:59;9.15;;;3.83;;
34767;SDS011;21755;43.608;1.236;2024-01-30T11:57:26;11.88;;;3.65;;
34767;SDS011;21755;43.608;1.236;2024-01-30T11:59:52;13.68;;;4.40;;
34767;SDS011;21755;43.608;1.236;2024-01-30T12:02:18;12.35;;;3.13;;
34767;SDS011;21755;43.608;1.236;2024-01-30T12:04:44;15.07;;;3.90;;
34767;SDS011;21755;43.608;1.236;2024-01-30T12:07:10;14.02;;;3.75;;
34767;SDS011;21755;43.608;1.236;2024-01-30T12:09:37;8.32;;;3.25;;
34767;SDS011;21755;43.608;1.236;2024-01-30T12:12:03;10.60;;;3.47;;
34767;SDS011;21755;43.608;1.236;2024-01-30T12:14:30;13.98;;;3.70;;
34767;SDS011;21755;43.608;1.236;2024-01-30T12:16:57;16.35;;;4.05;;
34767;SDS011;21755;43.608;1.236;2024-01-30T12:19:26;11.32;;;3.55;;
34767;SDS011;21755;43.608;1.236;2024-01-30T12:21:56;9.07;;;3.47;;
34767;SDS011;21755;43.608;1.236;2024-01-30T12:24:24;13.35;;;3.20;;
34767;SDS011;21755;43.608;1.236;2024-01-30T12:26:58;9.52;;;3.60;;
34767;SDS011;21755;43.608;1.236;2024-01-30T12:29:25;11.40;;;3.72;;
34767;SDS011;21755;43.608;1.236;2024-01-30T12:31:54;13.25;;;3.60;;
34767;SDS011;21755;43.608;1.236;2024-01-30T12:34:20;8.93;;;3.33;;
34767;SDS011;21755;43.608;1.236;2024-01-30T12:36:49;13.20;;;4.45;;
34767;SDS011;21755;43.608;1.236;2024-01-30T12:39:15;15.77;;;3.85;;
34767;SDS011;21755;43.608;1.236;2024-01-30T12:41:41;13.63;;;4.18;;
34767;SDS011;21755;43.608;1.236;2024-01-30T12:44:07;14.02;;;3.97;;
34767;SDS011;21755;43.608;1.236;2024-01-30T12:46:36;9.05;;;3.30;;
34767;SDS011;21755;43.608;1.236;2024-01-30T12:49:02;15.00;;;4.38;;
34767;SDS011;21755;43.608;1.236;2024-01-30T12:51:28;17.08;;;3.80;;
34767;SDS011;21755;43.608;1.236;2024-01-30T12:53:54;15.20;;;3.40;;
34767;SDS011;21755;43.608;1.236;2024-01-30T12:56:20;10.73;;;2.90;;
34767;SDS011;21755;43.608;1.236;2024-01-30T12:58:45;8.50;;;3.05;;
34767;SDS011;21755;43.608;1.236;2024-01-30T13:01:11;8.98;;;3.53;;
34767;SDS011;21755;43.608;1.236;2024-01-30T13:03:37;9.88;;;3.15;;
34767;SDS011;21755;43.608;1.236;2024-01-30T13:06:03;13.95;;;3.42;;
34767;SDS011;21755;43.608;1.236;2024-01-30T13:08:29;12.80;;;3.35;;
34767;SDS011;21755;43.608;1.236;2024-01-30T13:10:55;13.63;;;3.92;;
34767;SDS011;21755;43.608;1.236;2024-01-30T13:13:21;14.27;;;4.00;;
34767;SDS011;21755;43.608;1.236;2024-01-30T13:15:47;7.63;;;3.40;;
34767;SDS011;21755;43.608;1.236;2024-01-30T13:18:13;12.38;;;3.97;;
34767;SDS011;21755;43.608;1.236;2024-01-30T13:20:39;9.15;;;3.30;;
34767;SDS011;21755;43.608;1.236;2024-01-30T13:23:05;13.05;;;3.45;;
34767;SDS011;21755;43.608;1.236;2024-01-30T13:25:31;7.72;;;3.40;;
34767;SDS011;21755;43.608;1.236;2024-01-30T13:27:57;10.18;;;3.75;;
34767;SDS011;21755;43.608;1.236;2024-01-30T13:30:23;8.07;;;3.55;;
34767;SDS011;21755;43.608;1.236;2024-01-30T13:32:49;15.02;;;4.40;;
34767;SDS011;21755;43.608;1.236;2024-01-30T13:35:15;12.27;;;3.50;;
34767;SDS011;21755;43.608;1.236;2024-01-30T13:37:41;10.88;;;3.38;;
34767;SDS011;21755;43.608;1.236;2024-01-30T13:40:07;14.88;;;3.83;;
34767;SDS011;21755;43.608;1.236;2024-01-30T13:42:34;7.97;;;3.20;;
34767;SDS011;21755;43.608;1.236;2024-01-30T13:45:00;8.20;;;3.10;;
34767;SDS011;21755;43.608;1.236;2024-01-30T13:47:26;9.50;;;3.05;;
34767;SDS011;21755;43.608;1.236;2024-01-30T13:49:52;15.55;;;3.35;;
34767;SDS011;21755;43.608;1.236;2024-01-30T13:52:18;11.90;;;3.40;;
34767;SDS011;21755;43.608;1.236;2024-01-30T13:54:44;10.35;;;3.47;;
34767;SDS011;21755;43.608;1.236;2024-01-30T13:57:10;10.07;;;3.10;;
34767;SDS011;21755;43.608;1.236;2024-01-30T13:59:37;14.73;;;4.60;;
34767;SDS011;21755;43.608;1.236;2024-01-30T14:02:03;9.93;;;3.28;;
34767;SDS011;21755;43.608;1.236;2024-01-30T14:04:29;9.00;;;3.65;;
34767;SDS011;21755;43.608;1.236;2024-01-30T14:06:55;8.93;;;2.92;;
34767;SDS011;21755;43.608;1.236;2024-01-30T14:09:21;9.10;;;3.30;;
34767;SDS011;21755;43.608;1.236;2024-01-30T14:11:47;14.73;;;4.32;;
34767;SDS011;21755;43.608;1.236;2024-01-30T14:14:12;17.75;;;3.85;;
34767;SDS011;21755;43.608;1.236;2024-01-30T14:16:38;14.50;;;4.28;;
34767;SDS011;21755;43.608;1.236;2024-01-30T14:19:04;12.27;;;3.17;;
34767;SDS011;21755;43.608;1.236;2024-01-30T14:21:30;18.67;;;4.03;;
34767;SDS011;21755;43.608;1.236;2024-01-30T14:23:56;9.13;;;3.10;;
34767;SDS011;21755;43.608;1.236;2024-01-30T14:26:22;14.88;;;3.55;;
34767;SDS011;21755;43.608;1.236;2024-01-30T14:28:48;12.50;;;3.38;;
34767;SDS011;21755;43.608;1.236;2024-01-30T14:31:14;8.77;;;2.65;;
34767;SDS011;21755;43.608;1.236;2024-01-30T14:33:41;9.73;;;3.20;;
34767;SDS011;21755;43.608;1.236;2024-01-30T14:36:07;10.95;;;3.60;;
34767;SDS011;21755;43.608;1.236;2024-01-30T14:38:34;12.38;;;3.63;;
34767;SDS011;21755;43.608;1.236;2024-01-30T14:41:00;7.53;;;3.10;;